createdAt,value
2018-05-06T00:00:44.139Z,99.90
2018-05-06T00:03:11.703Z,99.90
2018-05-06T00:05:39.248Z,99.90
2018-05-06T00:08:06.816Z,99.90
2018-05-06T00:10:34.365Z,99.90
2018-05-06T00:13:01.936Z,99.90
2018-05-06T00:15:29.494Z,99.90
2018-05-06T00:17:57.055Z,99.90
2018-05-06T00:20:24.606Z,99.90
2018-05-06T00:22:52.165Z,99.90
2018-05-06T00:25:21.412Z,99.90
2018-05-06T00:27:48.960Z,99.90
2018-05-06T00:30:16.569Z,99.90
2018-05-06T00:32:44.116Z,99.90
2018-05-06T00:35:11.704Z,99.90
2018-05-06T00:37:39.251Z,99.90
2018-05-06T00:40:06.817Z,99.90
2018-05-06T00:42:34.363Z,99.90
2018-05-06T00:45:03.004Z,99.90
2018-05-06T00:47:30.551Z,99.90
2018-05-06T00:49:58.120Z,99.90
2018-05-06T00:52:25.667Z,99.90
2018-05-06T00:54:53.243Z,99.90
2018-05-06T00:57:21.559Z,99.90
2018-05-06T00:59:49.126Z,99.90
2018-05-06T01:02:16.668Z,99.90
2018-05-06T01:04:44.239Z,99.90
2018-05-06T01:07:11.788Z,99.90
2018-05-06T01:09:40.159Z,99.90
2018-05-06T01:12:07.704Z,99.90
2018-05-06T01:14:35.272Z,99.90
2018-05-06T01:17:02.826Z,99.90
2018-05-06T01:19:31.160Z,99.90
2018-05-06T01:21:59.469Z,99.90
2018-05-06T01:24:27.069Z,99.90
2018-05-06T01:26:54.613Z,99.90
2018-05-06T01:29:22.178Z,99.90
2018-05-06T01:31:49.733Z,99.90
2018-05-06T01:34:17.295Z,99.90
2018-05-06T01:36:44.844Z,99.90
2018-05-06T01:39:13.154Z,99.90
2018-05-06T01:41:40.714Z,99.90
2018-05-06T01:44:09.948Z,99.90
2018-05-06T01:46:37.511Z,99.90
2018-05-06T01:49:05.051Z,99.90
2018-05-06T01:51:34.302Z,99.90
2018-05-06T01:54:01.856Z,99.90
2018-05-06T01:56:29.427Z,99.90
2018-05-06T01:58:59.687Z,99.90
2018-05-06T02:01:27.243Z,99.90
2018-05-06T02:03:54.797Z,99.90
2018-05-06T02:06:22.363Z,99.90
2018-05-06T02:08:49.969Z,99.90
2018-05-06T02:11:18.681Z,99.90
2018-05-06T02:13:46.228Z,99.90
2018-05-06T02:16:15.660Z,99.90
2018-05-06T02:18:43.197Z,99.90
2018-05-06T02:21:11.534Z,99.90
2018-05-06T02:23:39.241Z,99.90
2018-05-06T02:26:06.817Z,99.90
2018-05-06T02:28:34.396Z,99.90
2018-05-06T02:31:02.719Z,99.90
2018-05-06T02:33:30.264Z,99.90
2018-05-06T02:35:58.590Z,99.90
2018-05-06T02:38:26.177Z,99.90
2018-05-06T02:40:54.480Z,99.90
2018-05-06T02:43:22.059Z,99.90
2018-05-06T02:45:49.625Z,99.90
2018-05-06T02:48:17.161Z,99.90
2018-05-06T02:50:46.409Z,99.90
2018-05-06T02:53:13.959Z,99.90
2018-05-06T02:55:41.527Z,99.90
2018-05-06T02:58:09.081Z,99.90
2018-05-06T03:00:36.903Z,99.90
2018-05-06T03:03:04.470Z,99.90
2018-05-06T03:05:32.782Z,99.90
2018-05-06T03:08:00.807Z,99.90
2018-05-06T03:10:28.359Z,99.90
2018-05-06T03:12:56.007Z,99.90
2018-05-06T03:15:24.331Z,99.90
2018-05-06T03:17:51.904Z,99.90
2018-05-06T03:20:19.450Z,99.90
2018-05-06T03:22:47.035Z,99.90
2018-05-06T03:25:14.594Z,99.90
2018-05-06T03:27:42.924Z,99.90
2018-05-06T03:30:10.515Z,99.90
2018-05-06T03:32:38.080Z,99.90
2018-05-06T03:35:05.616Z,99.90
2018-05-06T03:37:33.883Z,99.90
2018-05-06T03:40:02.195Z,99.90
2018-05-06T03:42:29.772Z,99.90
2018-05-06T03:44:57.318Z,99.90
2018-05-06T03:47:25.649Z,99.90
2018-05-06T03:49:53.192Z,99.90
2018-05-06T03:52:20.770Z,99.90
2018-05-06T03:54:48.321Z,99.90
2018-05-06T03:57:28.480Z,99.90
2018-05-06T04:00:07.875Z,99.90
2018-05-06T04:02:42.217Z,99.90
2018-05-06T04:05:09.751Z,99.90
2018-05-06T04:07:38.082Z,99.90
2018-05-06T04:10:06.443Z,99.90
2018-05-06T04:12:33.987Z,99.90
2018-05-06T04:15:01.586Z,99.90
2018-05-06T04:17:29.139Z,99.90
2018-05-06T04:19:57.492Z,99.90
2018-05-06T04:22:26.530Z,99.90
2018-05-06T04:24:54.851Z,99.90
2018-05-06T04:27:22.381Z,99.90
2018-05-06T04:29:49.954Z,99.90
2018-05-06T04:32:18.282Z,99.90
2018-05-06T04:34:45.849Z,99.90
2018-05-06T04:37:13.390Z,99.90
2018-05-06T04:39:40.946Z,99.90
2018-05-06T04:42:08.489Z,99.80
2018-05-06T04:44:36.044Z,99.20
2018-05-06T04:47:04.936Z,98.20
2018-05-06T04:49:32.496Z,97.80
2018-05-06T04:52:00.812Z,96.90
2018-05-06T04:54:28.374Z,96.90
2018-05-06T04:56:55.942Z,97.10
2018-05-06T04:59:23.499Z,96.00
2018-05-06T05:01:51.816Z,94.70
2018-05-06T05:04:21.032Z,94.70
2018-05-06T05:06:50.216Z,94.40
2018-05-06T05:09:17.792Z,94.90
2018-05-06T05:11:45.338Z,95.20
2018-05-06T05:14:15.074Z,94.40
2018-05-06T05:16:42.952Z,93.80
2018-05-06T05:19:11.272Z,92.80
2018-05-06T05:21:39.796Z,92.80
2018-05-06T05:24:07.415Z,94.00
2018-05-06T05:26:35.121Z,94.60
2018-05-06T05:29:02.782Z,94.30
2018-05-06T05:31:30.474Z,92.40
2018-05-06T05:33:58.167Z,91.50
2018-05-06T05:36:25.808Z,92.50
2018-05-06T05:38:53.398Z,92.60
2018-05-06T05:41:21.040Z,92.80
2018-05-06T05:43:48.737Z,93.40
2018-05-06T05:46:18.208Z,94.70
2018-05-06T05:48:49.143Z,92.30
2018-05-06T05:51:29.209Z,94.00
2018-05-06T05:54:01.183Z,94.00
2018-05-06T05:56:38.925Z,94.00
2018-05-06T05:59:16.570Z,94.30
2018-05-06T06:01:48.540Z,94.30
2018-05-06T06:04:17.075Z,94.90
2018-05-06T06:06:46.294Z,96.40
2018-05-06T06:09:15.280Z,96.80
2018-05-06T06:11:48.899Z,96.10
2018-05-06T06:14:18.014Z,97.90
2018-05-06T06:16:47.904Z,96.70
2018-05-06T06:19:18.105Z,95.70
2018-05-06T06:21:47.577Z,95.60
2018-05-06T06:24:15.641Z,94.80
2018-05-06T06:26:44.897Z,93.60
2018-05-06T06:29:15.961Z,94.70
2018-05-06T06:31:44.601Z,94.60
2018-05-06T06:34:12.888Z,94.00
2018-05-06T06:36:41.742Z,92.80
2018-05-06T06:39:09.995Z,91.40
2018-05-06T06:41:39.889Z,88.60
2018-05-06T06:44:11.465Z,88.60
2018-05-06T06:46:40.033Z,85.50
2018-05-06T06:49:08.246Z,88.80
2018-05-06T06:51:36.422Z,89.50
2018-05-06T06:54:05.598Z,90.40
2018-05-06T06:56:34.776Z,90.30
2018-05-06T06:59:03.778Z,78.00
2018-05-06T07:01:31.801Z,77.90
2018-05-06T07:03:59.708Z,83.80
2018-05-06T07:06:27.916Z,76.50
2018-05-06T07:08:57.310Z,81.40
2018-05-06T07:11:25.286Z,79.20
2018-05-06T07:13:54.597Z,63.30
2018-05-06T07:16:22.451Z,63.20
2018-05-06T07:18:51.145Z,61.40
2018-05-06T07:21:18.973Z,61.40
2018-05-06T07:23:47.129Z,59.00
2018-05-06T07:26:15.064Z,60.30
2018-05-06T07:28:42.940Z,59.70
2018-05-06T07:31:11.108Z,61.20
2018-05-06T07:33:38.888Z,56.90
2018-05-06T07:36:07.022Z,56.40
2018-05-06T07:38:35.278Z,63.20
2018-05-06T07:41:04.147Z,61.10
2018-05-06T07:43:32.360Z,61.20
2018-05-06T07:46:00.325Z,57.20
2018-05-06T07:48:28.215Z,65.00
2018-05-06T07:50:59.754Z,67.30
2018-05-06T07:53:27.324Z,65.10
2018-05-06T07:55:54.880Z,57.60
2018-05-06T07:58:22.449Z,59.50
2018-05-06T08:00:50.012Z,55.20
2018-05-06T08:03:18.348Z,59.50
2018-05-06T08:05:46.668Z,57.50
2018-05-06T08:08:14.304Z,57.30
2018-05-06T08:10:41.817Z,60.60
2018-05-06T08:13:09.398Z,55.80
2018-05-06T08:15:36.937Z,56.00
2018-05-06T08:18:05.268Z,54.90
2018-05-06T08:20:32.820Z,54.90
2018-05-06T08:23:00.385Z,56.10
2018-05-06T08:25:27.930Z,49.10
2018-05-06T08:27:56.292Z,49.00
2018-05-06T08:30:23.848Z,49.00
2018-05-06T08:32:51.395Z,50.30
2018-05-06T08:35:18.955Z,48.20
2018-05-06T08:37:46.520Z,47.80
2018-05-06T08:40:14.096Z,47.20
2018-05-06T08:42:41.652Z,47.80
2018-05-06T08:45:09.983Z,48.80
2018-05-06T08:47:37.550Z,48.90
2018-05-06T08:50:05.114Z,46.10
2018-05-06T08:52:32.672Z,52.90
2018-05-06T08:55:00.263Z,49.70
2018-05-06T08:57:28.039Z,49.20
2018-05-06T08:59:55.721Z,46.70
2018-05-06T09:02:23.287Z,50.40
2018-05-06T09:04:50.869Z,50.70
2018-05-06T09:07:18.433Z,49.10
2018-05-06T09:09:46.009Z,47.80
2018-05-06T09:12:13.568Z,46.40
2018-05-06T09:14:41.138Z,50.00
2018-05-06T09:17:08.854Z,48.00
2018-05-06T09:19:36.465Z,48.70
2018-05-06T09:22:04.023Z,47.10
2018-05-06T09:24:32.453Z,47.40
2018-05-06T09:27:00.075Z,47.40
2018-05-06T09:29:27.645Z,50.30
2018-05-06T09:31:55.183Z,50.00
2018-05-06T09:34:22.738Z,50.90
2018-05-06T09:36:50.377Z,48.70
2018-05-06T09:39:17.988Z,56.00
2018-05-06T09:41:45.525Z,47.30
2018-05-06T09:44:13.840Z,43.80
2018-05-06T09:46:41.424Z,43.80
2018-05-06T09:49:08.980Z,44.90
2018-05-06T09:51:36.555Z,47.90
2018-05-06T09:54:04.102Z,47.90
2018-05-06T09:56:31.681Z,45.60
2018-05-06T09:58:59.232Z,47.20
2018-05-06T10:01:27.568Z,48.00
2018-05-06T10:03:55.139Z,48.00
2018-05-06T10:06:22.723Z,49.10
2018-05-06T10:08:50.917Z,48.30
2018-05-06T10:11:19.714Z,50.20
2018-05-06T10:13:47.484Z,50.20
2018-05-06T10:16:15.038Z,50.40
2018-05-06T10:18:42.748Z,49.00
2018-05-06T10:21:10.333Z,51.10
2018-05-06T10:23:37.885Z,49.70
2018-05-06T10:26:05.602Z,52.60
2018-05-06T10:28:33.399Z,54.50
2018-05-06T10:31:02.361Z,51.40
2018-05-06T10:33:31.454Z,50.50
2018-05-06T10:35:59.483Z,50.60
2018-05-06T10:38:27.683Z,53.70
2018-05-06T10:40:56.677Z,51.90
2018-05-06T10:43:25.999Z,48.70
2018-05-06T10:45:53.609Z,52.50
2018-05-06T10:48:23.028Z,52.80
2018-05-06T10:50:50.818Z,46.60
2018-05-06T10:53:18.376Z,49.90
2018-05-06T10:55:46.057Z,46.80
2018-05-06T10:58:13.816Z,46.70
2018-05-06T11:00:41.411Z,45.50
2018-05-06T11:03:09.742Z,49.20
2018-05-06T11:05:38.066Z,48.30
2018-05-06T11:08:05.619Z,48.30
2018-05-06T11:10:33.931Z,48.00
2018-05-06T11:13:01.500Z,48.10
2018-05-06T11:15:29.562Z,48.00
2018-05-06T11:17:57.987Z,49.10
2018-05-06T11:20:25.526Z,49.00
2018-05-06T11:22:53.107Z,49.40
2018-05-06T11:25:20.638Z,49.10
2018-05-06T11:27:48.202Z,54.30
2018-05-06T11:30:15.781Z,48.40
2018-05-06T11:32:43.349Z,51.50
2018-05-06T11:38:16.888Z,53.30
2018-05-06T11:40:44.461Z,52.00
2018-05-06T11:43:12.063Z,50.50
2018-05-06T11:45:39.642Z,52.50
2018-05-06T11:48:08.056Z,50.30
2018-05-06T11:50:36.526Z,52.10
2018-05-06T11:53:06.184Z,51.10
2018-05-06T11:55:33.868Z,50.90
2018-05-06T11:58:01.516Z,48.60
2018-05-06T12:00:29.086Z,51.40
2018-05-06T12:02:56.669Z,51.30
2018-05-06T12:05:25.008Z,49.50
2018-05-06T12:07:52.595Z,49.60
2018-05-06T12:10:20.166Z,49.70
2018-05-06T12:12:47.798Z,48.80
2018-05-06T12:15:15.500Z,55.80
2018-05-06T12:17:43.861Z,49.20
2018-05-06T12:20:11.710Z,49.20
2018-05-06T12:22:39.600Z,48.10
2018-05-06T12:25:09.010Z,50.20
2018-05-06T12:27:37.380Z,47.70
2018-05-06T12:30:04.981Z,47.70
2018-05-06T12:32:32.646Z,51.20
2018-05-06T12:35:01.358Z,51.20
2018-05-06T12:37:36.837Z,51.10
2018-05-06T12:40:05.306Z,48.70
2018-05-06T12:42:33.668Z,49.70
2018-05-06T12:45:02.402Z,47.60
2018-05-06T12:47:30.010Z,47.60
2018-05-06T12:49:57.723Z,47.10
2018-05-06T12:52:25.311Z,50.50
2018-05-06T12:54:52.899Z,50.00
2018-05-06T12:57:20.654Z,49.70
2018-05-06T12:59:49.072Z,47.80
2018-05-06T13:02:16.673Z,47.70
2018-05-06T13:04:45.018Z,51.20
2018-05-06T13:07:12.634Z,51.20
2018-05-06T13:09:40.265Z,48.00
2018-05-06T13:12:07.840Z,48.40
2018-05-06T13:14:35.428Z,49.90
2018-05-06T13:17:03.064Z,48.40
2018-05-06T13:19:30.657Z,48.80
2018-05-06T13:21:58.232Z,52.40
2018-05-06T13:24:26.715Z,48.70
2018-05-06T13:26:55.081Z,49.60
2018-05-06T13:29:22.909Z,49.50
2018-05-06T13:31:50.477Z,51.10
2018-05-06T13:34:26.274Z,53.60
2018-05-06T13:36:53.834Z,50.00
2018-05-06T13:39:21.413Z,49.20
2018-05-06T13:41:49.754Z,44.90
2018-05-06T13:44:17.342Z,45.10
2018-05-06T13:46:44.919Z,45.80
2018-05-06T13:49:12.526Z,47.70
2018-05-06T13:51:40.092Z,48.30
2018-05-06T13:54:07.722Z,48.00
2018-05-06T13:56:36.054Z,49.40
2018-05-06T13:59:04.934Z,49.60
2018-05-06T14:01:32.606Z,47.20
2018-05-06T14:04:00.158Z,48.70
2018-05-06T14:06:27.760Z,48.50
2018-05-06T14:08:56.111Z,50.20
2018-05-06T14:11:23.696Z,49.60
2018-05-06T14:13:51.267Z,48.20
2018-05-06T14:16:19.621Z,47.30
2018-05-06T14:18:47.190Z,47.30
2018-05-06T14:21:14.785Z,51.20
2018-05-06T14:23:42.351Z,49.10
2018-05-06T14:26:09.938Z,50.70
2018-05-06T14:28:37.520Z,48.70
2018-05-06T14:31:05.108Z,48.70
2018-05-06T14:33:34.051Z,49.70
2018-05-06T14:36:01.654Z,49.70
2018-05-06T14:38:29.407Z,46.80
2018-05-06T14:40:58.497Z,48.40
2018-05-06T14:43:26.070Z,48.30
2018-05-06T14:45:53.656Z,48.70
2018-05-06T14:48:22.006Z,47.40
2018-05-06T14:50:49.601Z,47.40
2018-05-06T14:53:17.181Z,49.00
2018-05-06T14:55:44.764Z,49.30
2018-05-06T14:58:12.372Z,49.10
2018-05-06T15:00:40.730Z,48.80
2018-05-06T15:03:08.357Z,48.80
2018-05-06T15:05:35.940Z,48.90
2018-05-06T15:08:03.513Z,48.70
2018-05-06T15:10:31.163Z,48.50
2018-05-06T15:12:58.697Z,46.80
2018-05-06T15:15:26.285Z,48.70
2018-05-06T15:17:53.877Z,47.90
2018-05-06T15:20:22.205Z,47.70
2018-05-06T15:22:49.885Z,47.70
2018-05-06T15:25:17.401Z,46.70
2018-05-06T15:27:45.346Z,47.70
2018-05-06T15:30:13.681Z,48.70
2018-05-06T15:32:45.313Z,48.70
2018-05-06T15:35:12.885Z,49.70
2018-05-06T15:37:40.472Z,49.60
2018-05-06T15:40:08.198Z,49.70
2018-05-06T15:42:49.169Z,49.30
2018-05-06T15:45:17.756Z,51.10
2018-05-06T15:47:45.345Z,51.10
2018-05-06T15:50:12.960Z,49.20
2018-05-06T15:52:40.533Z,48.40
2018-05-06T15:55:08.099Z,47.60
2018-05-06T15:57:35.777Z,48.70
2018-05-06T16:00:03.363Z,49.30
2018-05-06T16:05:30.318Z,49.50
2018-05-06T16:07:57.924Z,49.60
2018-05-06T16:10:25.621Z,51.20
2018-05-06T16:12:53.978Z,51.10
2018-05-06T16:15:21.577Z,51.10
2018-05-06T16:17:50.371Z,49.10
2018-05-06T16:20:18.011Z,52.70
2018-05-06T16:22:45.938Z,49.90
2018-05-06T16:25:13.545Z,52.70
2018-05-06T16:27:42.051Z,50.60
2018-05-06T16:30:09.615Z,52.80
2018-05-06T16:32:37.202Z,52.40
2018-05-06T16:35:04.773Z,51.80
2018-05-06T16:37:32.358Z,50.60
2018-05-06T16:39:59.934Z,50.70
2018-05-06T16:42:27.645Z,52.30
2018-05-06T16:44:55.223Z,51.90
2018-05-06T16:47:22.804Z,53.90
2018-05-06T16:49:50.362Z,52.80
2018-05-06T16:52:18.009Z,54.60
2018-05-06T16:54:45.589Z,54.40
2018-05-06T16:57:13.162Z,55.30
2018-05-06T16:59:41.892Z,55.60
2018-05-06T17:02:10.267Z,56.20
2018-05-06T17:04:37.895Z,56.10
2018-05-06T17:07:06.258Z,55.90
2018-05-06T17:09:33.856Z,55.90
2018-05-06T17:12:01.429Z,54.60
2018-05-06T17:14:29.781Z,55.20
2018-05-06T17:16:57.344Z,55.20
2018-05-06T17:19:24.965Z,57.10
2018-05-06T17:21:52.573Z,58.50
2018-05-06T17:24:20.161Z,57.60
2018-05-06T17:26:48.496Z,56.70
2018-05-06T17:29:16.101Z,56.70
2018-05-06T17:31:44.437Z,56.90
2018-05-06T17:34:13.357Z,56.90
2018-05-06T17:36:41.002Z,55.70
2018-05-06T17:39:08.605Z,54.10
2018-05-06T17:41:36.192Z,53.60
2018-05-06T17:44:03.777Z,52.90
2018-05-06T17:46:31.363Z,52.30
2018-05-06T17:48:59.716Z,52.40
2018-05-06T17:51:27.292Z,52.50
2018-05-06T17:53:58.274Z,52.00
2018-05-06T17:56:28.592Z,52.50
2018-05-06T18:01:36.107Z,53.80
2018-05-06T18:04:03.655Z,53.50
2018-05-06T18:06:31.989Z,55.00
2018-05-06T18:08:59.578Z,55.00
2018-05-06T18:11:27.149Z,55.50
2018-05-06T18:13:55.490Z,57.40
2018-05-06T18:16:23.081Z,57.40
2018-05-06T18:18:50.639Z,58.80
2018-05-06T18:21:18.215Z,60.20
2018-05-06T18:23:46.544Z,63.60
2018-05-06T18:26:14.136Z,63.60
2018-05-06T18:28:41.700Z,65.90
2018-05-06T18:31:09.285Z,69.30
2018-05-06T18:33:36.864Z,72.90
2018-05-06T18:36:04.465Z,77.40
2018-05-06T18:38:32.033Z,81.40
2018-05-06T18:40:59.619Z,85.60
2018-05-06T18:43:27.961Z,91.30
2018-05-06T18:45:55.589Z,91.00
2018-05-06T18:48:23.186Z,92.00
2018-05-06T18:50:50.773Z,92.80
2018-05-06T18:53:18.344Z,93.40
2018-05-06T18:55:46.697Z,94.30
2018-05-06T18:58:15.256Z,94.30
2018-05-06T19:00:46.194Z,94.90
2018-05-06T19:03:13.917Z,95.60
2018-05-06T19:05:53.754Z,96.10
2018-05-06T19:08:21.738Z,96.10
2018-05-06T19:10:49.352Z,96.00
2018-05-06T19:13:16.976Z,96.00
2018-05-06T19:15:44.568Z,96.10
2018-05-06T19:18:13.522Z,96.40
2018-05-06T19:20:42.417Z,97.20
2018-05-06T19:23:10.001Z,97.90
2018-05-06T19:25:37.569Z,98.40
2018-05-06T19:28:06.817Z,99.20
2018-05-06T19:30:34.378Z,99.20
2018-05-06T19:33:01.927Z,99.20
2018-05-06T19:35:29.498Z,99.90
2018-05-06T19:38:05.153Z,99.30
2018-05-06T19:40:38.592Z,99.80
2018-05-06T19:43:07.317Z,99.30
2018-05-06T19:45:41.783Z,99.90
2018-05-06T19:48:09.327Z,99.90
2018-05-06T19:50:37.663Z,99.90
2018-05-06T19:53:05.221Z,99.90
2018-05-06T19:55:33.531Z,99.90
2018-05-06T19:58:01.105Z,99.90
2018-05-06T20:00:28.645Z,99.90
2018-05-06T20:02:56.222Z,99.90
2018-05-06T20:05:23.767Z,99.90
2018-05-06T20:07:51.327Z,99.90
2018-05-06T20:10:19.639Z,99.90
2018-05-06T20:12:47.983Z,99.90
2018-05-06T20:15:15.564Z,99.90
2018-05-06T20:17:43.196Z,99.90
2018-05-06T20:20:10.791Z,99.90
2018-05-06T20:22:38.335Z,99.90
2018-05-06T20:25:05.879Z,99.90
2018-05-06T20:27:33.443Z,99.90
2018-05-06T20:30:00.983Z,99.90
2018-05-06T20:32:28.547Z,99.90
2018-05-06T20:34:56.093Z,99.90
2018-05-06T20:37:24.482Z,99.90
2018-05-06T20:39:51.982Z,99.90
2018-05-06T20:42:20.318Z,99.90
2018-05-06T20:44:47.855Z,99.90
2018-05-06T20:47:15.419Z,99.90
2018-05-06T20:49:42.972Z,99.90
2018-05-06T20:52:10.538Z,99.90
2018-05-06T20:54:38.083Z,99.90
2018-05-06T20:57:05.652Z,99.90
2018-05-06T20:59:33.204Z,99.90
2018-05-06T21:02:00.833Z,99.90
2018-05-06T21:04:28.343Z,99.90
2018-05-06T21:06:56.658Z,99.90
2018-05-06T21:09:24.222Z,99.90
2018-05-06T21:11:52.553Z,99.90
2018-05-06T21:14:20.115Z,99.90
2018-05-06T21:16:48.428Z,99.90
2018-05-06T21:19:16.074Z,99.90
2018-05-06T21:21:43.560Z,99.90
2018-05-06T21:24:11.125Z,99.90
2018-05-06T21:26:39.431Z,99.90
2018-05-06T21:29:06.994Z,99.90
2018-05-06T21:31:34.544Z,99.90
2018-05-06T21:34:02.118Z,99.90
2018-05-06T21:36:30.435Z,99.90
2018-05-06T21:38:58.007Z,99.90
2018-05-06T21:41:26.310Z,99.90
2018-05-06T21:43:54.639Z,99.90
2018-05-06T21:46:22.184Z,99.90
2018-05-06T21:48:50.510Z,99.90
2018-05-06T21:51:18.094Z,99.90
2018-05-06T21:53:46.412Z,99.90
2018-05-06T21:56:13.959Z,99.90
2018-05-06T21:58:41.555Z,99.90
2018-05-06T22:01:26.487Z,99.90
2018-05-06T22:03:54.819Z,99.90
2018-05-06T22:06:22.375Z,99.90
2018-05-06T22:08:49.942Z,99.90
2018-05-06T22:11:17.487Z,99.90
2018-05-06T22:13:45.815Z,99.90
2018-05-06T22:16:13.355Z,99.90
2018-05-06T22:18:41.558Z,99.90
2018-05-06T22:21:09.095Z,99.90
2018-05-06T22:23:36.651Z,99.90
2018-05-06T22:26:04.958Z,99.90
2018-05-06T22:28:33.283Z,99.90
2018-05-06T22:31:00.827Z,99.90
2018-05-06T22:33:29.127Z,99.90
2018-05-06T22:35:57.451Z,99.90
2018-05-06T22:38:24.997Z,99.90
2018-05-06T22:40:52.555Z,99.90
2018-05-06T22:43:20.096Z,99.90
2018-05-06T22:45:48.429Z,99.90
2018-05-06T22:48:15.970Z,99.90
2018-05-06T22:50:44.303Z,99.90
2018-05-06T22:53:11.838Z,99.90
2018-05-06T22:55:39.396Z,99.90
2018-05-06T22:58:06.936Z,99.90
2018-05-06T23:00:35.255Z,99.90
2018-05-06T23:03:02.792Z,99.90
2018-05-06T23:05:30.369Z,99.90
2018-05-06T23:07:57.914Z,99.90
2018-05-06T23:10:25.470Z,99.90
2018-05-06T23:12:53.015Z,99.90
2018-05-06T23:15:20.572Z,99.90
2018-05-06T23:17:48.110Z,99.90
2018-05-06T23:20:16.435Z,99.90
2018-05-06T23:22:43.983Z,99.90
2018-05-06T23:25:11.617Z,99.90
2018-05-06T23:27:39.095Z,99.90
2018-05-06T23:30:06.651Z,99.90
2018-05-06T23:32:34.961Z,99.90
2018-05-06T23:35:02.527Z,99.90
2018-05-06T23:37:30.838Z,99.90
2018-05-06T23:39:59.169Z,99.90
2018-05-06T23:42:26.708Z,99.90
2018-05-06T23:44:54.274Z,99.90
2018-05-06T23:47:21.827Z,99.90
2018-05-06T23:49:49.362Z,99.90
2018-05-06T23:52:16.923Z,99.90
2018-05-06T23:54:44.485Z,99.90
2018-05-06T23:57:12.043Z,99.90
2018-05-06T23:59:39.575Z,99.90
